Time;durP1;ratioP1;P1;durP2;ratioP2;P2;SDS_P1;SDS_P2;PMS_P1;PMS_P2;Temp;Humidity;BMP_temperature;BMP_pressure;BME280_temperature;BME280_humidity;BME280_pressure;Samples;Min_cycle;Max_cycle;Signal;HPM_P1;HPM_P2
2021/12/31 00:00:09;;;;;;;;;;;;;;;19.25;59.99;100348.00;2073509;28;20282;-39
2021/12/31 00:01:09;;;;;;;;;;;;;;;19.26;59.95;100354.34;2090515;28;19981;-39
2021/12/31 00:02:09;;;;;;;;;;;;;;;19.26;59.96;100344.28;2089235;28;20386;-38
2021/12/31 00:03:10;;;;;;;;;;;;;;;19.26;59.93;100343.41;2093743;28;19916;-39
2021/12/31 00:04:10;;;;;;;;;;;;;;;19.23;60.03;100339.09;2095121;28;20265;-39
2021/12/31 00:05:10;;;;;;;;;;;;;;;19.24;59.98;100346.28;2092347;28;19917;-39
2021/12/31 00:06:11;;;;;;;;;;;;;;;19.24;59.98;100346.28;2098455;28;20358;-39
2021/12/31 00:07:11;;;;;;;;;;;;;;;19.24;60.02;100349.00;2091496;28;19924;-39
2021/12/31 00:08:11;;;;;;;;;;;;;;;19.24;59.91;100350.91;2092578;28;19947;-39
2021/12/31 00:09:12;;;;;;;;;;;;;;;19.25;60.00;100342.53;2094326;28;19965;-40
2021/12/31 00:10:12;;;;;;;;;;;;;;;19.24;59.92;100340.81;2093328;28;20010;-40
2021/12/31 00:11:12;;;;;;;;;;;;;;;19.24;59.96;100334.50;2094846;28;19922;-40
2021/12/31 00:12:13;;;;;;;;;;;;;;;19.23;59.98;100344.56;2093105;28;19916;-39
2021/12/31 00:13:13;;;;;;;;;;;;;;;19.24;59.86;100339.97;2100114;28;20001;-39
2021/12/31 00:14:15;;;;;;;;;;;;;;;19.23;59.99;100338.22;2093579;28;19916;-39
2021/12/31 00:15:15;;;;;;;;;;;;;;;19.22;59.91;100331.91;2089979;28;19913;-39
2021/12/31 00:16:15;;;;;;;;;;;;;;;19.23;59.90;100336.38;2085987;28;19981;-39
2021/12/31 00:17:16;;;;;;;;;;;;;;;19.23;59.92;100327.28;2084862;28;19955;-39
2021/12/31 00:18:16;;;;;;;;;;;;;;;19.23;59.97;100328.16;2094813;28;19904;-38
2021/12/31 00:19:17;;;;;;;;;;;;;;;19.20;59.97;100322.13;2088725;28;19927;-40
2021/12/31 00:20:21;;;;;;;;;;;;;;;19.22;59.89;100331.91;2086422;28;19919;-39
2021/12/31 00:21:21;;;;;;;;;;;;;;;19.21;60.00;100324.72;2088554;28;19921;-40
2021/12/31 00:23:28;;;;;;;;;;;;;;;19.21;60.10;100324.72;2086038;28;19959;-40
2021/12/31 00:24:28;;;;;;;;;;;;;;;19.20;59.97;100317.50;2090769;28;20324;-39
2021/12/31 00:25:30;;;;;;;;;;;;;;;19.21;59.82;100324.72;2088018;28;19908;-40
2021/12/31 00:26:30;;;;;;;;;;;;;;;19.21;59.92;100318.41;2088507;28;20323;-40
2021/12/31 00:27:30;;;;;;;;;;;;;;;19.20;59.80;100327.59;2083865;28;19917;-40
2021/12/31 00:28:31;;;;;;;;;;;;;;;19.20;59.85;100324.84;2085235;28;19970;-40
2021/12/31 00:29:31;;;;;;;;;;;;;;;19.21;59.91;100329.31;2094811;28;19942;-39
2021/12/31 00:30:32;;;;;;;;;;;;;;;19.21;59.83;100332.06;2095673;28;20549;-40
2021/12/31 00:31:32;;;;;;;;;;;;;;;19.19;59.83;100326.72;2090052;28;19920;-38
2021/12/31 00:32:33;;;;;;;;;;;;;;;19.20;59.84;100330.31;2093985;28;19979;-40
2021/12/31 00:33:33;;;;;;;;;;;;;;;19.20;59.87;100333.91;2094172;28;20070;-39
2021/12/31 00:34:33;;;;;;;;;;;;;;;19.19;59.87;100332.19;2092025;28;19926;-39
2021/12/31 00:35:34;;;;;;;;;;;;;;;19.19;59.77;100326.72;2085445;28;19975;-39
2021/12/31 00:36:41;;;;;;;;;;;;;;;19.19;59.89;100332.19;2083561;28;20249;-38
2021/12/31 00:37:42;;;;;;;;;;;;;;;19.18;60.00;100330.47;2090380;28;19923;-39
2021/12/31 00:38:42;;;;;;;;;;;;;;;19.19;59.83;100332.19;2095124;28;20327;-39
2021/12/31 00:39:43;;;;;;;;;;;;;;;19.19;59.85;100320.41;2093045;28;19908;-38
2021/12/31 00:40:43;;;;;;;;;;;;;;;19.18;59.73;100325.00;2095384;28;19908;-39
2021/12/31 00:41:44;;;;;;;;;;;;;;;19.19;59.86;100331.34;2081315;28;19960;-39
2021/12/31 00:42:45;;;;;;;;;;;;;;;19.18;59.79;100318.66;2077615;28;19909;-39
2021/12/31 00:43:45;;;;;;;;;;;;;;;19.18;59.75;100318.66;2086263;28;19913;-39
2021/12/31 00:44:45;;;;;;;;;;;;;;;19.18;59.81;100316.81;2091999;28;20863;-39
2021/12/31 00:45:45;;;;;;;;;;;;;;;19.18;59.82;100314.09;2094362;28;19916;-39
2021/12/31 00:46:47;;;;;;;;;;;;;;;19.17;59.70;100312.34;2086326;28;19908;-39
2021/12/31 00:47:47;;;;;;;;;;;;;;;19.17;59.71;100320.53;2089026;28;19919;-39
2021/12/31 00:48:48;;;;;;;;;;;;;;;19.17;59.76;100312.34;2094807;28;19943;-40
2021/12/31 00:49:48;;;;;;;;;;;;;;;19.16;59.80;100316.09;2092056;28;20110;-39
2021/12/31 00:50:48;;;;;;;;;;;;;;;19.16;59.82;100320.72;2086435;28;20263;-39
2021/12/31 00:51:49;;;;;;;;;;;;;;;19.16;59.76;100315.25;2096290;28;20238;-39
2021/12/31 00:52:49;;;;;;;;;;;;;;;19.16;59.74;100313.38;2091973;28;20014;-39
2021/12/31 00:53:49;;;;;;;;;;;;;;;19.16;59.78;100313.38;2089574;28;20153;-39
2021/12/31 00:54:49;;;;;;;;;;;;;;;19.15;59.76;100317.09;2092353;28;19924;-39
2021/12/31 00:55:50;;;;;;;;;;;;;;;19.16;59.81;100317.97;2091831;28;20223;-40
2021/12/31 00:56:50;;;;;;;;;;;;;;;19.15;59.59;100314.34;2094460;28;19916;-39
2021/12/31 00:57:51;;;;;;;;;;;;;;;19.16;59.80;100321.56;2093640;28;19925;-40
2021/12/31 00:58:51;;;;;;;;;;;;;;;19.15;59.82;100314.34;2095165;28;19908;-40
2021/12/31 00:59:52;;;;;;;;;;;;;;;19.15;59.75;100319.81;2092636;28;19915;-39
2021/12/31 01:00:52;;;;;;;;;;;;;;;19.14;59.70;100312.63;2090798;28;19912;-39
2021/12/31 01:01:52;;;;;;;;;;;;;;;19.14;59.72;100309.91;2092719;28;19916;-40
2021/12/31 01:02:52;;;;;;;;;;;;;;;19.14;59.78;100320.84;2094237;28;19908;-39
2021/12/31 01:03:53;;;;;;;;;;;;;;;19.15;59.74;100316.22;2093066;28;19912;-39
2021/12/31 01:04:54;;;;;;;;;;;;;;;19.14;59.94;100309.06;2088742;28;19912;-39
2021/12/31 01:05:54;;;;;;;;;;;;;;;19.13;59.76;100316.34;2095443;28;19920;-39
2021/12/31 01:06:55;;;;;;;;;;;;;;;19.14;59.77;100314.50;2093978;28;19985;-39
2021/12/31 01:07:55;;;;;;;;;;;;;;;19.14;59.69;100318.09;2092231;28;19947;-39
2021/12/31 01:08:56;;;;;;;;;;;;;;;19.13;59.63;100304.56;2092697;28;19923;-39
2021/12/31 01:09:57;;;;;;;;;;;;;;;19.14;59.57;100314.50;2089522;28;20380;-39
2021/12/31 01:10:57;;;;;;;;;;;;;;;19.13;59.61;100313.63;2093778;28;20246;-39
2021/12/31 01:11:58;;;;;;;;;;;;;;;19.13;59.75;100310.91;2086511;28;19992;-37
2021/12/31 01:12:59;;;;;;;;;;;;;;;19.12;59.68;100317.38;2090874;28;20003;-38
2021/12/31 01:14:03;;;;;;;;;;;;;;;19.13;59.65;100319.09;2095112;28;19915;-38
2021/12/31 01:15:09;;;;;;;;;;;;;;;19.14;59.71;100314.50;2094183;28;19908;-39
2021/12/31 01:16:09;;;;;;;;;;;;;;;19.12;59.62;100308.31;2087433;28;19939;-39
2021/12/31 01:17:14;;;;;;;;;;;;;;;19.13;59.66;100310.91;2096347;28;20341;-40
2021/12/31 01:18:17;;;;;;;;;;;;;;;19.11;59.64;100312.06;2093212;28;19920;-39
2021/12/31 01:20:18;;;;;;;;;;;;;;;19.10;59.63;100305.72;2093422;28;19958;-39
2021/12/31 01:21:22;;;;;;;;;;;;;;;19.12;59.73;100313.78;2084500;28;19994;-39
2021/12/31 01:22:27;;;;;;;;;;;;;;;19.11;59.65;100318.41;2090914;28;20206;-39
2021/12/31 01:23:28;;;;;;;;;;;;;;;19.10;59.68;100319.38;2093623;28;20242;-39
2021/12/31 01:24:30;;;;;;;;;;;;;;;19.11;59.74;100317.50;2093157;28;19974;-39
2021/12/31 01:25:31;;;;;;;;;;;;;;;19.11;59.75;100325.72;2087934;28;20033;-39
2021/12/31 01:26:32;;;;;;;;;;;;;;;19.10;59.68;100327.59;2078110;28;19935;-39
2021/12/31 01:27:33;;;;;;;;;;;;;;;19.11;59.71;100326.59;2073671;28;19917;-39
2021/12/31 01:28:33;;;;;;;;;;;;;;;19.10;59.70;100322.13;2079943;28;20418;-39
2021/12/31 01:29:34;;;;;;;;;;;;;;;19.10;59.70;100322.13;2089005;28;20108;-39
2021/12/31 01:30:34;;;;;;;;;;;;;;;19.09;59.66;100320.41;2092559;28;19909;-39
2021/12/31 01:31:34;;;;;;;;;;;;;;;19.09;59.70;100328.59;2098791;28;19904;-38
2021/12/31 01:32:35;;;;;;;;;;;;;;;19.10;59.65;100322.13;2093662;28;20007;-39
2021/12/31 01:33:35;;;;;;;;;;;;;;;19.10;59.81;100329.47;2092526;28;20423;-39
2021/12/31 01:34:36;;;;;;;;;;;;;;;19.09;59.79;100325.88;2089114;28;19923;-39
2021/12/31 01:35:37;;;;;;;;;;;;;;;19.09;59.64;100327.75;2089029;28;19916;-38
2021/12/31 01:36:37;;;;;;;;;;;;;;;19.09;59.88;100325.88;2090632;28;19916;-39
2021/12/31 01:37:37;;;;;;;;;;;;;;;19.08;59.80;100324.13;2091424;28;19916;-39
2021/12/31 01:38:38;;;;;;;;;;;;;;;19.08;59.59;100324.13;2093005;28;19908;-39
2021/12/31 01:39:38;;;;;;;;;;;;;;;19.09;59.66;100335.94;2091122;28;19912;-40
2021/12/31 01:40:39;;;;;;;;;;;;;;;19.08;59.66;100326.00;2090791;28;20334;-38
2021/12/31 01:41:40;;;;;;;;;;;;;;;19.08;59.64;100326.88;2081910;28;20031;-38
2021/12/31 01:42:40;;;;;;;;;;;;;;;19.06;59.64;100332.50;2080621;28;20408;-39
2021/12/31 01:43:41;;;;;;;;;;;;;;;19.06;59.67;100320.72;2096253;28;19915;-39
2021/12/31 01:45:04;;;;;;;;;;;;;;;19.07;59.57;100330.63;2079046;28;19921;-39
2021/12/31 01:46:10;;;;;;;;;;;;;;;19.06;59.68;100332.50;2071393;28;19935;-46
2021/12/31 01:47:14;;;;;;;;;;;;;;;19.06;59.71;100332.50;2085463;28;19916;-47
2021/12/31 01:48:35;;;;;;;;;;;;;;;19.07;59.63;100336.09;2097384;28;19943;-46
2021/12/31 01:49:39;;;;;;;;;;;;;;;19.07;59.79;100333.34;2091373;28;20646;-46
2021/12/31 01:50:39;;;;;;;;;;;;;;;19.06;59.74;100331.63;2092582;28;19923;-46
2021/12/31 01:51:40;;;;;;;;;;;;;;;19.05;59.52;100330.75;2092484;28;19916;-46
2021/12/31 01:52:40;;;;;;;;;;;;;;;19.06;59.60;100334.38;2092332;28;19927;-47
2021/12/31 01:53:40;;;;;;;;;;;;;;;19.05;59.65;100333.47;2085431;28;20727;-46
2021/12/31 01:54:41;;;;;;;;;;;;;;;19.05;59.79;100335.34;2092703;28;20262;-46
2021/12/31 01:55:42;;;;;;;;;;;;;;;19.05;59.66;100341.69;2094253;28;19916;-46
2021/12/31 01:56:42;;;;;;;;;;;;;;;19.05;59.58;100343.56;2090865;28;19913;-46
2021/12/31 01:57:43;;;;;;;;;;;;;;;19.05;59.57;100341.69;2095383;28;19959;-46
2021/12/31 01:58:44;;;;;;;;;;;;;;;19.05;59.66;100338.09;2089589;28;19955;-46
2021/12/31 01:59:44;;;;;;;;;;;;;;;19.03;59.68;100331.91;2093628;28;20659;-46
2021/12/31 02:00:45;;;;;;;;;;;;;;;19.04;59.65;100337.22;2092942;28;19918;-46
2021/12/31 02:01:46;;;;;;;;;;;;;;;19.04;59.52;100336.38;2089786;28;20488;-46
2021/12/31 02:02:47;;;;;;;;;;;;;;;19.03;59.55;100337.38;2094143;28;20325;-46
2021/12/31 02:03:48;;;;;;;;;;;;;;;19.03;59.54;100331.91;2091639;28;19931;-46
2021/12/31 02:04:49;;;;;;;;;;;;;;;19.04;59.60;100344.56;2089959;28;19969;-46
2021/12/31 02:05:49;;;;;;;;;;;;;;;19.03;59.70;100329.16;2090765;28;19943;-46
2021/12/31 02:06:49;;;;;;;;;;;;;;;19.03;59.64;100331.91;2093757;28;19923;-46
2021/12/31 02:07:50;;;;;;;;;;;;;;;19.03;59.48;100337.38;2086012;28;19916;-46
2021/12/31 02:08:50;;;;;;;;;;;;;;;19.01;59.57;100332.06;2091460;28;20343;-46
2021/12/31 02:09:54;;;;;;;;;;;;;;;19.03;59.47;100331.91;2091011;28;20051;-46
2021/12/31 02:10:54;;;;;;;;;;;;;;;19.01;59.53;100323.88;2086174;28;19909;-46
2021/12/31 02:11:55;;;;;;;;;;;;;;;19.01;59.61;100329.34;2090200;28;19916;-46
2021/12/31 02:12:56;;;;;;;;;;;;;;;19.00;59.47;100327.59;2086940;28;20542;-46
2021/12/31 02:13:57;;;;;;;;;;;;;;;19.02;59.63;100335.66;2092557;28;20219;-46
2021/12/31 02:14:57;;;;;;;;;;;;;;;19.01;59.54;100328.44;2092876;28;19927;-46
2021/12/31 02:15:58;;;;;;;;;;;;;;;19.01;59.46;100322.97;2091051;28;19943;-46
2021/12/31 02:16:58;;;;;;;;;;;;;;;19.01;59.54;100325.72;2093974;28;19916;-46
2021/12/31 02:18:00;;;;;;;;;;;;;;;19.01;59.54;100320.25;2091504;28;20334;-46
2021/12/31 02:19:10;;;;;;;;;;;;;;;19.02;59.39;100324.72;2093842;28;19912;-46
2021/12/31 02:20:11;;;;;;;;;;;;;;;18.99;59.52;100331.34;2088813;28;20256;-47
2021/12/31 02:21:11;;;;;;;;;;;;;;;19.00;59.56;100329.47;2092411;28;19908;-46
2021/12/31 02:22:12;;;;;;;;;;;;;;;19.00;59.50;100324.00;2088798;28;19919;-46
2021/12/31 02:23:13;;;;;;;;;;;;;;;19.00;59.45;100327.59;2088391;28;19947;-46
2021/12/31 02:24:14;;;;;;;;;;;;;;;18.99;59.42;100325.88;2092427;28;19927;-46
2021/12/31 02:25:14;;;;;;;;;;;;;;;19.00;59.47;100322.13;2092065;28;19962;-46
2021/12/31 02:26:14;;;;;;;;;;;;;;;19.00;59.42;100326.72;2088800;28;20312;-46
2021/12/31 02:27:15;;;;;;;;;;;;;;;18.98;59.50;100318.66;2091820;28;19954;-46
2021/12/31 02:28:15;;;;;;;;;;;;;;;18.99;59.54;100316.81;2094547;28;20366;-48
2021/12/31 02:29:21;;;;;;;;;;;;;;;18.99;59.42;100319.56;2092457;28;19908;-46
2021/12/31 02:30:22;;;;;;;;;;;;;;;18.99;59.42;100325.03;2091940;28;20007;-46
2021/12/31 02:31:22;;;;;;;;;;;;;;;18.99;59.43;100319.56;2090664;28;20322;-46
2021/12/31 02:32:22;;;;;;;;;;;;;;;18.99;59.50;100322.28;2092484;28;19908;-46
2021/12/31 02:33:23;;;;;;;;;;;;;;;18.98;59.57;100324.13;2090960;28;19919;-46
2021/12/31 02:34:23;;;;;;;;;;;;;;;18.98;59.43;100318.66;2096801;28;19920;-46
2021/12/31 02:35:24;;;;;;;;;;;;;;;18.97;59.54;100322.41;2092548;28;19916;-46
2021/12/31 02:36:24;;;;;;;;;;;;;;;18.98;59.42;100323.28;2093449;28;19916;-44
2021/12/31 02:37:24;;;;;;;;;;;;;;;18.98;59.47;100326.00;2095536;28;20159;-44
2021/12/31 02:38:25;;;;;;;;;;;;;;;18.98;59.40;100328.75;2093239;28;19955;-44
2021/12/31 02:39:25;;;;;;;;;;;;;;;18.97;59.45;100332.50;2091578;28;19923;-44
2021/12/31 02:40:28;;;;;;;;;;;;;;;18.97;59.41;100324.28;2091636;28;19989;-44
2021/12/31 02:41:28;;;;;;;;;;;;;;;18.97;59.53;100327.03;2091815;28;20286;-43
2021/12/31 02:42:28;;;;;;;;;;;;;;;18.96;59.41;100320.72;2092637;28;19953;-44
2021/12/31 02:43:29;;;;;;;;;;;;;;;18.96;59.44;100330.75;2091096;28;19999;-44
2021/12/31 02:44:29;;;;;;;;;;;;;;;18.97;59.43;100327.03;2098710;28;20018;-44
2021/12/31 02:45:34;;;;;;;;;;;;;;;18.96;59.52;100325.28;2091592;28;19934;-45
2021/12/31 02:46:34;;;;;;;;;;;;;;;18.96;59.46;100330.75;2099399;28;19916;-45
2021/12/31 02:47:35;;;;;;;;;;;;;;;18.96;59.44;100328.00;2102087;28;19915;-45
2021/12/31 02:48:35;;;;;;;;;;;;;;;18.95;59.51;100329.03;2093327;28;19916;-45
2021/12/31 02:49:39;;;;;;;;;;;;;;;18.94;59.59;100322.72;2091533;28;19916;-45
2021/12/31 02:50:41;;;;;;;;;;;;;;;18.94;59.36;100328.19;2084346;28;20006;-45
2021/12/31 02:51:41;;;;;;;;;;;;;;;18.95;59.42;100329.03;2089329;28;19920;-45
2021/12/31 02:52:42;;;;;;;;;;;;;;;18.94;59.37;100327.31;2094085;28;19961;-45
2021/12/31 02:53:43;;;;;;;;;;;;;;;18.94;59.47;100327.31;2086345;28;20330;-45
2021/12/31 02:54:48;;;;;;;;;;;;;;;18.93;59.48;100323.69;2087062;28;19982;-45
2021/12/31 02:55:54;;;;;;;;;;;;;;;18.94;59.23;100332.78;2085525;28;19959;-45
2021/12/31 02:56:54;;;;;;;;;;;;;;;18.93;59.40;100325.56;2092186;28;19962;-45
2021/12/31 02:57:54;;;;;;;;;;;;;;;18.94;59.52;100332.78;2093897;28;19926;-45
2021/12/31 02:58:55;;;;;;;;;;;;;;;18.93;59.41;100326.44;2091813;28;19916;-45
2021/12/31 02:59:55;;;;;;;;;;;;;;;18.93;59.44;100331.03;2094168;28;19908;-45
2021/12/31 03:00:56;;;;;;;;;;;;;;;18.93;59.41;100339.25;2092205;28;20035;-46
2021/12/31 03:01:58;;;;;;;;;;;;;;;18.93;59.41;100325.56;2088962;28;19912;-45
2021/12/31 03:02:59;;;;;;;;;;;;;;;18.92;59.54;100323.88;2090519;28;20267;-45
2021/12/31 03:03:59;;;;;;;;;;;;;;;18.93;59.38;100331.03;2091774;28;19947;-45
2021/12/31 03:05:01;;;;;;;;;;;;;;;18.92;59.30;100329.31;2093344;28;19912;-45
2021/12/31 03:06:01;;;;;;;;;;;;;;;18.91;59.37;100328.44;2091262;28;20236;-46
2021/12/31 03:07:04;;;;;;;;;;;;;;;18.92;59.28;100323.88;2087081;28;20135;-45
2021/12/31 03:08:08;;;;;;;;;;;;;;;18.92;59.39;100323.88;2093549;28;20219;-45
2021/12/31 03:09:11;;;;;;;;;;;;;;;18.92;59.41;100323.88;2096543;28;19915;-46
2021/12/31 03:10:11;;;;;;;;;;;;;;;18.91;59.42;100322.13;2096177;28;19938;-45
2021/12/31 03:11:13;;;;;;;;;;;;;;;18.90;59.37;100314.94;2094593;28;19904;-45
2021/12/31 03:12:14;;;;;;;;;;;;;;;18.91;59.35;100316.66;2091935;28;19923;-45
2021/12/31 03:13:15;;;;;;;;;;;;;;;18.90;59.34;100317.69;2088815;28;20237;-45
2021/12/31 03:14:16;;;;;;;;;;;;;;;18.90;59.37;100314.94;2089013;28;20188;-45
2021/12/31 03:15:17;;;;;;;;;;;;;;;18.90;59.39;100314.94;2088049;28;19908;-45
2021/12/31 03:16:21;;;;;;;;;;;;;;;18.89;59.38;100310.47;2080732;28;20429;-46
2021/12/31 03:17:22;;;;;;;;;;;;;;;18.89;59.50;100313.19;2081758;28;19924;-45
2021/12/31 03:18:22;;;;;;;;;;;;;;;18.88;59.41;100306.88;2079133;28;19923;-45
2021/12/31 03:19:23;;;;;;;;;;;;;;;18.88;59.35;100311.50;2083530;28;19917;-45
2021/12/31 03:20:36;;;;;;;;;;;;;;;18.89;59.35;100313.19;2083683;28;19911;-45
2021/12/31 03:21:36;;;;;;;;;;;;;;;18.88;59.44;100317.81;2080175;28;19916;-45
2021/12/31 03:22:37;;;;;;;;;;;;;;;18.88;59.53;100315.06;2078055;28;19952;-45
2021/12/31 03:23:38;;;;;;;;;;;;;;;18.88;59.35;100322.41;2076626;28;20159;-45
2021/12/31 03:24:41;;;;;;;;;;;;;;;18.87;59.37;100317.97;2080193;28;19928;-46
2021/12/31 03:25:41;;;;;;;;;;;;;;;18.88;59.41;100317.81;2083656;28;19922;-45
2021/12/31 03:26:42;;;;;;;;;;;;;;;18.88;59.49;100316.94;2083495;28;19912;-45
2021/12/31 03:27:42;;;;;;;;;;;;;;;18.88;59.40;100312.34;2083013;28;19916;-45
2021/12/31 03:28:42;;;;;;;;;;;;;;;18.87;59.33;100315.25;2087060;28;19916;-45
2021/12/31 03:29:42;;;;;;;;;;;;;;;18.87;59.37;100309.78;2085206;28;19908;-45
2021/12/31 03:30:43;;;;;;;;;;;;;;;18.87;59.27;100309.78;2087153;28;20011;-46
2021/12/31 03:31:43;;;;;;;;;;;;;;;18.87;59.38;100304.31;2084163;28;19923;-45
2021/12/31 03:32:43;;;;;;;;;;;;;;;18.85;59.35;100308.03;2084862;28;20297;-46
2021/12/31 03:33:44;;;;;;;;;;;;;;;18.87;59.31;100304.31;2085266;28;19924;-45
2021/12/31 03:34:44;;;;;;;;;;;;;;;18.84;59.40;100303.59;2083294;28;20035;-45
2021/12/31 03:35:44;;;;;;;;;;;;;;;18.86;59.38;100308.88;2086197;28;19920;-45
2021/12/31 03:36:45;;;;;;;;;;;;;;;18.84;59.40;100310.94;2085804;28;19912;-45
2021/12/31 03:37:45;;;;;;;;;;;;;;;18.83;59.41;100310.03;2082254;28;20441;-45
2021/12/31 03:38:45;;;;;;;;;;;;;;;18.84;59.30;100310.94;2078054;28;19913;-45
2021/12/31 03:39:45;;;;;;;;;;;;;;;18.84;59.46;100314.50;2082742;28;19916;-45
2021/12/31 03:40:47;;;;;;;;;;;;;;;18.84;59.30;100316.38;2085837;28;19923;-45
2021/12/31 03:41:47;;;;;;;;;;;;;;;18.85;59.27;100313.50;2079594;28;19924;-45
2021/12/31 03:42:47;;;;;;;;;;;;;;;18.84;59.32;100310.94;2082334;28;20007;-45
2021/12/31 03:43:47;;;;;;;;;;;;;;;18.83;59.25;100301.84;2086800;28;20442;-45
2021/12/31 03:44:48;;;;;;;;;;;;;;;18.83;59.23;100301.84;2079866;28;19917;-45
2021/12/31 03:45:50;;;;;;;;;;;;;;;18.83;59.37;100292.78;2080476;28;19984;-45
2021/12/31 03:46:51;;;;;;;;;;;;;;;18.84;59.28;100302.75;2077318;28;19960;-45
2021/12/31 03:47:51;;;;;;;;;;;;;;;18.83;59.30;100293.66;2079992;28;20491;-45
2021/12/31 03:48:52;;;;;;;;;;;;;;;18.82;59.25;100300.13;2078749;28;20554;-45
2021/12/31 03:49:52;;;;;;;;;;;;;;;18.82;59.31;100302.88;2085222;28;19916;-45
2021/12/31 03:50:52;;;;;;;;;;;;;;;18.82;59.36;100305.59;2086248;28;20757;-45
2021/12/31 03:51:52;;;;;;;;;;;;;;;18.82;59.24;100310.19;2086029;28;20027;-45
2021/12/31 03:52:53;;;;;;;;;;;;;;;18.82;59.32;100308.31;2083778;28;20208;-45
2021/12/31 03:53:53;;;;;;;;;;;;;;;18.82;59.31;100305.59;2085316;28;20531;-45
2021/12/31 03:54:53;;;;;;;;;;;;;;;18.82;59.26;100307.47;2086793;28;19997;-47
2021/12/31 03:55:54;;;;;;;;;;;;;;;18.82;59.25;100310.19;2085007;28;20360;-44
2021/12/31 03:56:54;;;;;;;;;;;;;;;18.81;59.33;100301.16;2086230;28;20002;-45
2021/12/31 03:57:54;;;;;;;;;;;;;;;18.82;59.29;100302.88;2086015;28;19924;-45
2021/12/31 03:58:55;;;;;;;;;;;;;;;18.81;59.26;100306.63;2084096;28;20334;-45
2021/12/31 03:59:55;;;;;;;;;;;;;;;18.80;59.22;100299.41;2078839;28;19920;-45
2021/12/31 04:00:56;;;;;;;;;;;;;;;18.81;59.36;100305.72;2079987;28;20382;-45
2021/12/31 04:01:56;;;;;;;;;;;;;;;18.81;59.29;100300.25;2080302;28;20468;-45
2021/12/31 04:02:57;;;;;;;;;;;;;;;18.81;59.25;100294.81;2081249;28;19920;-45
2021/12/31 04:03:57;;;;;;;;;;;;;;;18.80;59.42;100293.94;2082067;28;19955;-45
2021/12/31 04:04:58;;;;;;;;;;;;;;;18.79;59.34;100292.25;2085026;28;20094;-45
2021/12/31 04:05:58;;;;;;;;;;;;;;;18.80;59.26;100288.47;2086845;28;20317;-45
2021/12/31 04:06:58;;;;;;;;;;;;;;;18.79;59.39;100292.25;2085463;28;20674;-45
2021/12/31 04:07:58;;;;;;;;;;;;;;;18.79;59.25;100283.16;2085838;28;19917;-45
2021/12/31 04:08:59;;;;;;;;;;;;;;;18.78;59.29;100285.03;2080688;28;20416;-45
2021/12/31 04:09:59;;;;;;;;;;;;;;;18.79;59.38;100280.44;2085906;28;20082;-45
2021/12/31 04:11:00;;;;;;;;;;;;;;;18.78;59.29;100285.03;2087854;28;19991;-45
2021/12/31 04:12:00;;;;;;;;;;;;;;;18.78;59.20;100285.03;2084924;28;19948;-45
2021/12/31 04:13:01;;;;;;;;;;;;;;;18.78;59.28;100290.50;2082901;28;19915;-45
2021/12/31 04:14:01;;;;;;;;;;;;;;;18.79;59.28;100285.88;2086131;28;19951;-45
2021/12/31 04:15:02;;;;;;;;;;;;;;;18.79;59.26;100291.34;2085792;28;19927;-45
2021/12/31 04:16:02;;;;;;;;;;;;;;;18.78;59.27;100292.38;2083579;28;19939;-45
2021/12/31 04:17:04;;;;;;;;;;;;;;;18.78;59.30;100295.97;2087954;28;20460;-45
2021/12/31 04:18:04;;;;;;;;;;;;;;;18.78;59.22;100293.22;2093105;28;19920;-45
2021/12/31 04:19:05;;;;;;;;;;;;;;;18.77;59.22;100291.50;2090496;28;19920;-45
2021/12/31 04:20:07;;;;;;;;;;;;;;;18.77;59.33;100294.25;2091759;28;19916;-45
2021/12/31 04:21:07;;;;;;;;;;;;;;;18.77;59.19;100294.25;2090815;28;20336;-45
2021/12/31 04:22:11;;;;;;;;;;;;;;;18.77;59.25;100298.84;2093300;28;19915;-45
2021/12/31 04:23:25;;;;;;;;;;;;;;;18.75;59.14;100301.69;2091138;28;20018;-45
2021/12/31 04:25:43;;;;;;;;;;;;;;;18.76;59.31;100308.88;2090746;28;19970;-45
2021/12/31 04:26:44;;;;;;;;;;;;;;;18.76;59.30;100308.88;2094313;28;19961;-45
2021/12/31 04:27:44;;;;;;;;;;;;;;;18.76;59.30;100308.88;2092846;28;19951;-43
2021/12/31 04:28:44;;;;;;;;;;;;;;;18.76;59.29;100306.16;2094023;28;20541;-45
2021/12/31 04:29:50;;;;;;;;;;;;;;;18.75;59.35;100296.22;2095350;28;20365;-45
2021/12/31 04:30:51;;;;;;;;;;;;;;;18.75;59.40;100295.34;2088910;28;19955;-45
2021/12/31 04:31:51;;;;;;;;;;;;;;;18.75;59.30;100298.94;2091847;28;19934;-46
2021/12/31 04:32:51;;;;;;;;;;;;;;;18.75;59.33;100296.22;2092411;28;20077;-45
2021/12/31 04:33:52;;;;;;;;;;;;;;;18.75;59.32;100298.09;2093998;28;19927;-45
2021/12/31 04:34:52;;;;;;;;;;;;;;;18.75;59.28;100296.22;2093032;28;20350;-45
2021/12/31 04:35:52;;;;;;;;;;;;;;;18.73;59.26;100298.22;2093789;28;19958;-46
2021/12/31 04:36:53;;;;;;;;;;;;;;;18.74;59.26;100299.97;2087938;28;19913;-45
2021/12/31 04:37:53;;;;;;;;;;;;;;;18.74;59.25;100299.97;2090700;28;20690;-45
2021/12/31 04:38:54;;;;;;;;;;;;;;;18.74;59.20;100299.97;2085681;28;19939;-46
2021/12/31 04:39:54;;;;;;;;;;;;;;;18.73;59.15;100303.69;2088246;28;20608;-45
2021/12/31 04:40:55;;;;;;;;;;;;;;;18.73;59.29;100297.38;2091559;28;19948;-45
2021/12/31 04:41:55;;;;;;;;;;;;;;;18.73;59.35;100311.88;2094374;28;19916;-45
2021/12/31 04:42:56;;;;;;;;;;;;;;;18.73;59.27;100313.75;2092158;28;19937;-45
2021/12/31 04:43:57;;;;;;;;;;;;;;;18.72;59.19;100321.09;2087585;28;19916;-45
2021/12/31 04:44:57;;;;;;;;;;;;;;;18.73;59.17;100319.22;2089897;28;19979;-45
2021/12/31 04:45:57;;;;;;;;;;;;;;;18.73;59.38;100330.13;2093619;28;20268;-45
2021/12/31 04:46:58;;;;;;;;;;;;;;;18.72;59.16;100321.09;2086040;28;19908;-45
2021/12/31 04:47:59;;;;;;;;;;;;;;;18.72;59.14;100321.09;2091303;28;19923;-45
2021/12/31 04:49:00;;;;;;;;;;;;;;;18.73;59.15;100327.41;2092472;28;19908;-45
2021/12/31 04:50:00;;;;;;;;;;;;;;;18.71;59.16;100324.81;2086036;28;20392;-45
2021/12/31 04:51:00;;;;;;;;;;;;;;;18.72;59.26;100328.41;2088902;28;19964;-45
2021/12/31 04:52:01;;;;;;;;;;;;;;;18.72;59.15;100321.09;2095092;28;20613;-45
2021/12/31 04:53:04;;;;;;;;;;;;;;;18.71;59.26;100323.94;2092801;28;19927;-45
2021/12/31 04:54:06;;;;;;;;;;;;;;;18.72;59.14;100329.28;2092839;28;19963;-45
2021/12/31 04:55:07;;;;;;;;;;;;;;;18.71;59.16;100322.06;2085452;28;19912;-45
2021/12/31 04:56:07;;;;;;;;;;;;;;;18.71;59.26;100327.53;2089093;28;20256;-45
2021/12/31 04:57:08;;;;;;;;;;;;;;;18.70;59.22;100331.28;2094547;28;20336;-45
2021/12/31 04:58:08;;;;;;;;;;;;;;;18.70;59.11;100319.50;2087148;28;20034;-45
2021/12/31 04:59:09;;;;;;;;;;;;;;;18.70;59.17;100331.28;2087981;28;19916;-46
2021/12/31 05:00:12;;;;;;;;;;;;;;;18.69;59.12;100324.09;2094500;28;19909;-45
2021/12/31 05:01:12;;;;;;;;;;;;;;;18.70;59.17;100325.81;2091847;28;19912;-45
2021/12/31 05:02:12;;;;;;;;;;;;;;;18.69;59.19;100318.66;2093356;28;19916;-45
2021/12/31 05:03:14;;;;;;;;;;;;;;;18.70;59.37;100327.69;2094096;28;19965;-45
2021/12/31 05:04:15;;;;;;;;;;;;;;;18.68;59.13;100322.38;2092061;28;20200;-45
2021/12/31 05:05:15;;;;;;;;;;;;;;;18.69;59.17;100329.56;2096810;28;19959;-45
2021/12/31 05:06:16;;;;;;;;;;;;;;;18.69;59.08;100328.69;2087282;28;20088;-45
2021/12/31 05:07:16;;;;;;;;;;;;;;;18.69;59.20;100326.84;2090520;28;19923;-45
2021/12/31 05:08:16;;;;;;;;;;;;;;;18.68;59.17;100333.28;2085693;28;19911;-45
2021/12/31 05:09:17;;;;;;;;;;;;;;;18.68;59.12;100327.81;2087488;28;19916;-45
2021/12/31 05:10:18;;;;;;;;;;;;;;;18.68;59.14;100333.28;2090081;28;20299;-45
2021/12/31 05:11:18;;;;;;;;;;;;;;;18.68;59.13;100327.81;2092795;28;19923;-45
2021/12/31 05:12:25;;;;;;;;;;;;;;;18.68;59.19;100329.69;2094520;28;19919;-45
2021/12/31 05:13:25;;;;;;;;;;;;;;;18.68;59.14;100338.75;2093756;28;20733;-45
2021/12/31 05:14:25;;;;;;;;;;;;;;;18.68;59.11;100340.63;2087954;28;20234;-45
2021/12/31 05:15:28;;;;;;;;;;;;;;;18.68;59.13;100344.22;2089686;28;20255;-45
2021/12/31 05:16:28;;;;;;;;;;;;;;;18.68;59.21;100346.94;2085466;28;20382;-46